createdAt,value
2023-04-13T00:01:12.287Z,99246.75
2023-04-13T00:03:39.856Z,99239.03
2023-04-13T00:06:10.950Z,99247.66
2023-04-13T00:08:38.428Z,99244.22
2023-04-13T00:11:07.498Z,99240.72
2023-04-13T00:13:41.461Z,99253.63
2023-04-13T00:16:10.093Z,99234.78
2023-04-13T00:18:37.244Z,99221.91
2023-04-13T00:21:04.686Z,99240.00
2023-04-13T00:23:32.109Z,99249.41
2023-04-13T00:26:01.405Z,99238.28
2023-04-13T00:28:29.735Z,99233.09
2023-04-13T00:30:56.912Z,99232.25
2023-04-13T00:33:24.042Z,99228.81
2023-04-13T00:35:51.743Z,99228.81
2023-04-13T00:38:18.799Z,99225.28
2023-04-13T00:40:45.929Z,99230.47
2023-04-13T00:43:13.026Z,99232.16
2023-04-13T00:45:41.380Z,99227.91
2023-04-13T00:48:11.915Z,99222.72
2023-04-13T00:50:40.055Z,99221.00
2023-04-13T00:53:10.412Z,99222.69
2023-04-13T00:55:42.137Z,99220.16
2023-04-13T00:58:10.958Z,99225.31
2023-04-13T01:00:42.960Z,99225.31
2023-04-13T01:03:10.689Z,99220.13
2023-04-13T01:05:54.129Z,99215.81
2023-04-13T01:08:37.181Z,99214.97
2023-04-13T01:11:18.696Z,99215.81
2023-04-13T01:13:45.807Z,99211.56
2023-04-13T01:16:20.668Z,99220.16
2023-04-13T01:18:53.168Z,99215.91
2023-04-13T01:21:26.012Z,99207.38
2023-04-13T01:24:05.725Z,99213.34
2023-04-13T01:26:58.355Z,99211.59
2023-04-13T01:29:27.470Z,99209.06
2023-04-13T01:31:55.764Z,99204.78
2023-04-13T01:34:25.077Z,99205.66
2023-04-13T01:36:53.461Z,99204.81
2023-04-13T01:39:21.794Z,99209.97
2023-04-13T01:41:49.186Z,99210.00
2023-04-13T01:44:17.097Z,99211.72
2023-04-13T01:46:47.759Z,99208.28
2023-04-13T01:49:19.447Z,99211.69
2023-04-13T01:51:50.499Z,99227.13
2023-04-13T01:54:25.739Z,99233.91
2023-04-13T01:56:57.356Z,99229.56
2023-04-13T01:59:24.583Z,99240.78
2023-04-13T02:01:52.604Z,99236.28
2023-04-13T02:04:20.291Z,99242.34
2023-04-13T02:06:48.285Z,99244.88
2023-04-13T02:09:15.618Z,99248.25
2023-04-13T02:11:44.109Z,99254.31
2023-04-13T02:14:11.173Z,99248.34
2023-04-13T02:16:38.978Z,99245.81
2023-04-13T02:19:06.099Z,99256.16
2023-04-13T02:21:34.709Z,99253.59
2023-04-13T02:24:01.724Z,99263.91
2023-04-13T02:26:28.809Z,99270.63
2023-04-13T02:28:56.511Z,99274.19
2023-04-13T02:31:23.761Z,99278.50
2023-04-13T02:33:52.147Z,99278.50
2023-04-13T02:36:20.324Z,99287.88
2023-04-13T02:38:47.738Z,99288.72
2023-04-13T02:41:15.556Z,99295.66
2023-04-13T02:43:43.536Z,99303.25
2023-04-13T02:46:10.587Z,99298.13
2023-04-13T02:48:38.073Z,99312.75
2023-04-13T02:51:05.285Z,99318.78
2023-04-13T02:53:32.391Z,99327.34
2023-04-13T02:55:59.713Z,99330.75
2023-04-13T02:58:26.765Z,99317.78
2023-04-13T03:00:53.992Z,99329.81
2023-04-13T03:03:21.742Z,99331.41
2023-04-13T03:05:50.525Z,99339.19
2023-04-13T03:08:17.915Z,99337.38
2023-04-13T03:10:44.956Z,99346.84
2023-04-13T03:13:12.117Z,99353.59
2023-04-13T03:15:40.678Z,99360.41
2023-04-13T03:18:07.786Z,99352.59
2023-04-13T03:20:34.922Z,99368.06
2023-04-13T03:23:02.591Z,99364.56
2023-04-13T03:25:30.795Z,99368.00
2023-04-13T03:27:59.015Z,99370.56
2023-04-13T03:30:26.410Z,99386.00
2023-04-13T03:32:53.576Z,99386.81
2023-04-13T03:35:21.523Z,99381.66
2023-04-13T03:37:48.604Z,99392.00
2023-04-13T03:40:15.724Z,99391.97
2023-04-13T03:42:42.877Z,99395.34
2023-04-13T03:45:10.595Z,99392.78
2023-04-13T03:47:39.171Z,99393.53
2023-04-13T03:50:06.789Z,99400.47
2023-04-13T03:52:33.820Z,99400.50
2023-04-13T03:55:01.764Z,99400.50
2023-04-13T03:57:29.873Z,99406.47
2023-04-13T03:59:56.975Z,99408.28
2023-04-13T04:02:24.328Z,99407.50
2023-04-13T04:04:52.174Z,99418.56
2023-04-13T04:07:23.008Z,99417.78
2023-04-13T04:09:51.060Z,99422.06
2023-04-13T04:12:18.206Z,99428.03
2023-04-13T04:14:45.245Z,99428.06
2023-04-13T04:17:12.332Z,99430.56
2023-04-13T04:19:39.600Z,99438.25
2023-04-13T04:22:07.267Z,99445.19
2023-04-13T04:24:34.622Z,99435.69
2023-04-13T04:27:02.648Z,99446.09
2023-04-13T04:29:35.963Z,99450.44
2023-04-13T04:32:05.575Z,99452.91
2023-04-13T04:34:32.996Z,99451.31
2023-04-13T04:37:03.168Z,99457.34
2023-04-13T04:39:34.996Z,99459.16
2023-04-13T04:42:04.681Z,99454.84
2023-04-13T04:44:31.881Z,99467.63
2023-04-13T04:46:59.682Z,99463.34
2023-04-13T04:49:28.168Z,99471.09
2023-04-13T04:51:55.959Z,99482.22
2023-04-13T04:54:23.439Z,99475.25
2023-04-13T04:56:52.249Z,99496.75
2023-04-13T04:59:22.451Z,99495.81
2023-04-13T05:01:50.348Z,99486.31
2023-04-13T05:04:17.713Z,99482.97
2023-04-13T05:06:44.976Z,99491.59
2023-04-13T05:09:12.079Z,99494.03
2023-04-13T05:11:39.213Z,99503.50
2023-04-13T05:14:06.738Z,99493.13
2023-04-13T05:16:34.874Z,99501.72
2023-04-13T05:19:02.455Z,99503.41
2023-04-13T05:21:29.632Z,99499.16
2023-04-13T05:23:56.910Z,99508.63
2023-04-13T05:26:25.525Z,99514.72
2023-04-13T05:28:52.827Z,99519.06
2023-04-13T05:31:20.568Z,99512.25
2023-04-13T05:33:48.085Z,99523.41
2023-04-13T05:36:15.184Z,99520.91
2023-04-13T05:38:43.041Z,99538.09
2023-04-13T05:41:10.411Z,99536.41
2023-04-13T05:43:37.616Z,99539.91
2023-04-13T05:46:05.042Z,99539.88
2023-04-13T05:48:34.309Z,99538.91
2023-04-13T05:51:02.100Z,99553.66
2023-04-13T05:53:29.300Z,99557.00
2023-04-13T05:55:56.637Z,99568.94
2023-04-13T05:58:26.250Z,99569.88
2023-04-13T06:00:53.990Z,99569.84
2023-04-13T06:03:21.922Z,99578.44
2023-04-13T06:05:49.640Z,99582.75
2023-04-13T06:08:17.492Z,99571.78
2023-04-13T06:10:44.743Z,99581.28
2023-04-13T06:13:12.509Z,99589.81
2023-04-13T06:15:40.221Z,99596.59
2023-04-13T06:18:07.389Z,99599.31
2023-04-13T06:20:34.985Z,99593.31
2023-04-13T06:23:02.605Z,99594.34
2023-04-13T06:25:29.643Z,99591.00
2023-04-13T06:27:56.948Z,99603.97
2023-04-13T06:30:24.083Z,99603.16
2023-04-13T06:32:51.952Z,99602.41
2023-04-13T06:35:19.194Z,99600.75
2023-04-13T06:37:46.456Z,99600.91
2023-04-13T06:40:17.308Z,99611.13
2023-04-13T06:42:44.368Z,99623.13
2023-04-13T06:45:12.307Z,99618.00
2023-04-13T06:47:43.108Z,99624.91
2023-04-13T06:50:18.567Z,99636.16
2023-04-13T06:52:47.639Z,99639.56
2023-04-13T06:55:16.336Z,99642.94
2023-04-13T06:57:44.114Z,99649.72
2023-04-13T07:00:28.350Z,99645.63
2023-04-13T07:02:58.578Z,99648.31
2023-04-13T07:05:25.929Z,99653.47
2023-04-13T07:07:52.961Z,99655.28
2023-04-13T07:10:20.036Z,99645.91
2023-04-13T07:12:47.683Z,99661.31
2023-04-13T07:15:15.438Z,99677.66
2023-04-13T07:17:42.802Z,99687.84
2023-04-13T07:20:10.216Z,99683.53
2023-04-13T07:22:38.134Z,99681.72
2023-04-13T07:25:05.641Z,99682.47
2023-04-13T07:27:33.567Z,99685.16
2023-04-13T07:30:01.665Z,99689.63
2023-04-13T07:32:31.312Z,99699.94
2023-04-13T07:35:02.180Z,99706.78
2023-04-13T07:37:29.715Z,99712.75
2023-04-13T07:39:56.916Z,99702.16
2023-04-13T07:42:25.111Z,99722.81
2023-04-13T07:44:56.324Z,99719.38
2023-04-13T07:47:23.453Z,99733.94
2023-04-13T07:49:51.556Z,99724.47
2023-04-13T07:52:20.398Z,99730.59
2023-04-13T07:54:47.666Z,99731.63
2023-04-13T07:57:14.972Z,99734.47
2023-04-13T07:59:42.015Z,99732.75
2023-04-13T08:02:09.187Z,99737.97
2023-04-13T08:04:36.672Z,99737.19
2023-04-13T08:07:04.577Z,99742.41
2023-04-13T08:09:42.360Z,99758.84
2023-04-13T08:12:09.707Z,99752.19
2023-04-13T08:14:37.211Z,99750.63
2023-04-13T08:17:06.113Z,99764.38
2023-04-13T08:19:33.880Z,99767.84
2023-04-13T08:22:01.631Z,99754.06
2023-04-13T08:24:29.291Z,99761.88
2023-04-13T08:26:58.308Z,99774.72
2023-04-13T08:29:25.693Z,99773.66
2023-04-13T08:31:53.103Z,99796.88
2023-04-13T08:34:21.612Z,99790.81
2023-04-13T08:36:48.795Z,99802.81
2023-04-13T08:39:16.888Z,99795.88
2023-04-13T08:41:45.984Z,99812.28
2023-04-13T08:44:14.336Z,99802.31
2023-04-13T08:46:43.895Z,99829.94
2023-04-13T08:49:12.304Z,99827.44
2023-04-13T08:51:42.042Z,99849.75
2023-04-13T08:54:09.218Z,99848.94
2023-04-13T08:56:46.016Z,99867.06
2023-04-13T08:59:16.136Z,99854.19
2023-04-13T09:01:47.371Z,99858.59
2023-04-13T09:04:18.001Z,99857.75
2023-04-13T09:06:51.400Z,99853.44
2023-04-13T09:09:21.174Z,99872.53
2023-04-13T09:11:50.844Z,99882.00
2023-04-13T09:14:22.470Z,99882.84
2023-04-13T09:16:50.383Z,99895.81
2023-04-13T09:19:29.929Z,99889.94
2023-04-13T09:21:57.684Z,99901.09
2023-04-13T09:24:26.052Z,99897.69
2023-04-13T09:26:53.437Z,99903.72
2023-04-13T09:29:22.347Z,99911.56
2023-04-13T09:31:50.569Z,99913.25
2023-04-13T09:34:28.601Z,99913.28
2023-04-13T09:36:57.316Z,99925.38
2023-04-13T09:39:27.919Z,99926.22
2023-04-13T09:41:56.659Z,99940.94
2023-04-13T09:44:35.085Z,99947.91
2023-04-13T09:47:06.977Z,99941.03
2023-04-13T09:49:41.963Z,99957.31
2023-04-13T09:52:23.537Z,99951.44
2023-04-13T09:55:00.173Z,99968.72
2023-04-13T09:57:32.168Z,99965.41
2023-04-13T10:00:01.337Z,99961.91
2023-04-13T10:02:29.286Z,99975.72
2023-04-13T10:04:57.582Z,99980.88
2023-04-13T10:07:28.734Z,99985.16
2023-04-13T10:09:55.779Z,99991.25
2023-04-13T10:12:26.862Z,100003.44
2023-04-13T10:15:02.697Z,100000.03
2023-04-13T10:17:54.862Z,100006.09
2023-04-13T10:20:22.918Z,100005.25
2023-04-13T10:22:53.287Z,100013.84
2023-04-13T10:25:32.131Z,100016.47
2023-04-13T10:28:00.586Z,100009.50
2023-04-13T10:30:28.404Z,100027.59
2023-04-13T10:33:09.965Z,100031.91
2023-04-13T10:35:37.628Z,100035.16
2023-04-13T10:38:05.387Z,100038.59
2023-04-13T10:40:46.281Z,100051.50
2023-04-13T10:43:26.242Z,100057.38
2023-04-13T10:46:10.919Z,100050.56
2023-04-13T10:48:38.029Z,100067.06
2023-04-13T10:51:05.113Z,100057.66
2023-04-13T10:53:33.349Z,100074.00
2023-04-13T10:56:01.653Z,100074.91
2023-04-13T10:58:33.034Z,100081.75
2023-04-13T11:01:00.685Z,100086.06
2023-04-13T11:03:28.855Z,100088.84
2023-04-13T11:05:58.345Z,100086.34
2023-04-13T11:08:26.633Z,100091.66
2023-04-13T11:10:55.164Z,100092.44
2023-04-13T11:13:25.463Z,100100.28
2023-04-13T11:16:01.785Z,100111.41
2023-04-13T11:18:28.933Z,100120.06
2023-04-13T11:20:56.457Z,100113.84
2023-04-13T11:23:24.612Z,100121.56
2023-04-13T11:25:59.867Z,100136.94
2023-04-13T11:28:40.905Z,100134.41
2023-04-13T11:31:08.536Z,100130.19
2023-04-13T11:33:38.651Z,100136.34
2023-04-13T11:36:07.886Z,100136.47
2023-04-13T11:38:35.167Z,100138.09
2023-04-13T11:41:15.742Z,100139.81
2023-04-13T11:43:46.601Z,100155.22
2023-04-13T11:46:16.316Z,100155.94
2023-04-13T11:48:43.980Z,100147.25
2023-04-13T11:51:11.869Z,100145.50
2023-04-13T11:53:40.318Z,100165.28
2023-04-13T11:56:07.932Z,100168.88
2023-04-13T11:58:36.689Z,100169.00
2023-04-13T12:01:13.985Z,100167.28
2023-04-13T12:04:01.019Z,100160.47
2023-04-13T12:06:33.988Z,100158.84
2023-04-13T12:09:10.299Z,100171.00
2023-04-13T12:11:44.191Z,100176.97
2023-04-13T12:19:26.113Z,100165.22
2023-04-13T12:21:56.713Z,100171.38
2023-04-13T12:24:37.788Z,100190.41
2023-04-13T12:29:40.135Z,100192.09
2023-04-13T12:32:14.105Z,100178.31
2023-04-13T12:34:42.231Z,100194.69
2023-04-13T12:37:11.082Z,100197.34
2023-04-13T12:39:38.258Z,100215.47
2023-04-13T12:42:05.524Z,100211.16
2023-04-13T12:44:34.159Z,100215.38
2023-04-13T12:47:04.970Z,100227.50
2023-04-13T12:49:32.035Z,100241.22
2023-04-13T12:51:59.155Z,100235.31
2023-04-13T12:54:26.266Z,100247.50
2023-04-13T12:56:54.085Z,100237.97
2023-04-13T12:59:23.164Z,100238.06
2023-04-13T13:01:51.532Z,100227.66
2023-04-13T13:04:18.664Z,100247.63
2023-04-13T13:06:45.761Z,100250.19
2023-04-13T13:09:12.957Z,100250.88
2023-04-13T13:11:40.063Z,100261.31
2023-04-13T13:14:09.841Z,100249.31
2023-04-13T13:16:38.226Z,100258.03
2023-04-13T13:19:05.558Z,100269.28
2023-04-13T13:21:33.160Z,100278.78
2023-04-13T13:24:00.431Z,100280.53
2023-04-13T13:26:33.119Z,100266.63
2023-04-13T13:29:07.239Z,100273.50
2023-04-13T13:31:34.413Z,100268.25
2023-04-13T13:34:01.841Z,100273.44
2023-04-13T13:36:30.619Z,100283.97
2023-04-13T13:38:59.813Z,100283.13
2023-04-13T13:41:27.227Z,100280.50
2023-04-13T13:43:54.239Z,100282.22
2023-04-13T13:46:22.088Z,100292.63
2023-04-13T13:48:49.245Z,100290.03
2023-04-13T13:51:16.370Z,100286.41
2023-04-13T13:53:43.475Z,100297.81
2023-04-13T13:56:10.611Z,100301.31
2023-04-13T13:58:37.675Z,100316.88
2023-04-13T14:01:05.525Z,100309.09
2023-04-13T14:03:32.707Z,100315.06
2023-04-13T14:06:00.010Z,100327.25
2023-04-13T14:08:27.044Z,100319.50
2023-04-13T14:10:54.260Z,100329.03
2023-04-13T14:13:21.999Z,100335.72
2023-04-13T14:15:49.101Z,100330.34
2023-04-13T14:18:16.349Z,100324.03
2023-04-13T14:20:43.585Z,100318.09
2023-04-13T14:23:10.846Z,100328.34
2023-04-13T14:25:41.014Z,100325.53
2023-04-13T14:28:09.358Z,100339.28
2023-04-13T14:30:37.085Z,100330.09
2023-04-13T14:33:05.788Z,100338.13
2023-04-13T14:35:33.176Z,100331.59
2023-04-13T14:38:00.452Z,100337.91
2023-04-13T14:40:28.338Z,100329.78
2023-04-13T14:42:55.413Z,100335.03
2023-04-13T14:45:23.644Z,100336.00
2023-04-13T14:47:53.722Z,100333.94
2023-04-13T14:50:24.211Z,100338.53
2023-04-13T14:52:52.872Z,100347.19
2023-04-13T14:55:20.361Z,100353.22
2023-04-13T14:57:48.117Z,100349.69
2023-04-13T15:00:25.952Z,100360.97
2023-04-13T15:02:53.651Z,100360.09
2023-04-13T15:05:21.844Z,100369.53
2023-04-13T15:07:51.762Z,100364.25
2023-04-13T15:10:19.126Z,100367.06
2023-04-13T15:12:46.608Z,100375.78
2023-04-13T15:15:13.873Z,100376.59
2023-04-13T15:17:41.074Z,100377.41
2023-04-13T15:20:10.709Z,100380.97
2023-04-13T15:22:38.034Z,100374.03
2023-04-13T15:25:05.627Z,100388.75
2023-04-13T15:27:32.789Z,100380.63
2023-04-13T15:30:00.425Z,100389.03
2023-04-13T15:32:28.394Z,100386.81
2023-04-13T15:34:56.742Z,100394.72
2023-04-13T15:37:24.284Z,100396.47
2023-04-13T15:39:52.031Z,100391.09
2023-04-13T15:42:21.903Z,100395.41
2023-04-13T15:44:49.028Z,100402.34
2023-04-13T15:47:16.384Z,100402.59
2023-04-13T15:49:43.535Z,100405.22
2023-04-13T15:52:10.766Z,100409.56
2023-04-13T15:54:37.986Z,100407.00
2023-04-13T15:57:05.396Z,100418.22
2023-04-13T15:59:34.575Z,100407.69
2023-04-13T16:02:02.346Z,100407.66
2023-04-13T16:04:29.761Z,100406.47
2023-04-13T16:07:11.939Z,100403.88
2023-04-13T16:09:43.304Z,100409.16
2023-04-13T16:12:11.759Z,100417.34
2023-04-13T16:14:39.340Z,100422.59
2023-04-13T16:17:07.834Z,100407.81
2023-04-13T16:19:35.796Z,100422.41
2023-04-13T16:22:05.609Z,100411.88
2023-04-13T16:24:33.595Z,100420.66
2023-04-13T16:27:00.708Z,100419.06
2023-04-13T16:29:28.891Z,100424.31
2023-04-13T16:31:56.766Z,100413.84
2023-04-13T16:34:26.620Z,100430.94
2023-04-13T16:36:54.202Z,100433.16
2023-04-13T16:39:22.462Z,100429.72
2023-04-13T16:41:50.838Z,100426.06
2023-04-13T16:44:17.972Z,100444.03
2023-04-13T16:46:45.149Z,100450.34
2023-04-13T16:49:12.445Z,100447.72
2023-04-13T16:51:39.543Z,100449.44
2023-04-13T16:54:06.730Z,100449.41
2023-04-13T16:56:33.872Z,100437.94
2023-04-13T16:59:01.845Z,100463.84
2023-04-13T17:01:30.698Z,100470.94
2023-04-13T17:03:58.123Z,100456.25
2023-04-13T17:06:26.698Z,100475.41
2023-04-13T17:08:53.860Z,100471.13
2023-04-13T17:11:25.278Z,100469.38
2023-04-13T17:13:52.433Z,100473.69
2023-04-13T17:16:19.698Z,100473.63
2023-04-13T17:18:47.679Z,100487.34
2023-04-13T17:21:14.809Z,100489.00
2023-04-13T17:23:41.865Z,100481.09
2023-04-13T17:26:08.922Z,100480.16
2023-04-13T17:28:36.039Z,100484.38
2023-04-13T17:31:03.119Z,100488.69
2023-04-13T17:33:30.282Z,100492.16
2023-04-13T17:35:57.463Z,100496.38
2023-04-13T17:38:24.642Z,100484.13
2023-04-13T17:40:52.155Z,100478.06
2023-04-13T17:43:19.389Z,100494.44
2023-04-13T17:45:46.592Z,100494.38
2023-04-13T17:48:13.963Z,100504.78
2023-04-13T17:50:41.307Z,100512.59
2023-04-13T17:53:08.559Z,100511.75
2023-04-13T17:55:36.546Z,100528.81
2023-04-13T17:58:04.008Z,100516.59
2023-04-13T18:00:31.251Z,100530.50
2023-04-13T18:02:58.561Z,100532.19
2023-04-13T18:05:26.778Z,100521.88
2023-04-13T18:07:53.865Z,100528.75
2023-04-13T18:10:22.031Z,100531.34
2023-04-13T18:12:49.454Z,100539.84
2023-04-13T18:15:17.258Z,100539.75
2023-04-13T18:17:44.419Z,100544.72
2023-04-13T18:20:11.952Z,100555.94
2023-04-13T18:22:39.103Z,100548.13
2023-04-13T18:25:06.437Z,100554.88
2023-04-13T18:27:33.687Z,100556.56
2023-04-13T18:30:00.984Z,100553.09
2023-04-13T18:32:28.120Z,100553.00
2023-04-13T18:34:55.476Z,100560.78
2023-04-13T18:37:22.495Z,100556.44
2023-04-13T18:39:50.019Z,100562.41
2023-04-13T18:42:17.530Z,100568.38
2023-04-13T18:44:44.596Z,100562.91
2023-04-13T18:47:11.649Z,100572.47
2023-04-13T18:49:38.835Z,100575.00
2023-04-13T18:52:06.052Z,100575.78
2023-04-13T18:54:33.234Z,100579.16
2023-04-13T18:57:00.271Z,100587.63
2023-04-13T18:59:28.324Z,100586.63
2023-04-13T19:01:55.492Z,100597.69
2023-04-13T19:04:22.818Z,100600.13
2023-04-13T19:06:50.561Z,100600.88
2023-04-13T19:09:17.792Z,100604.19
2023-04-13T19:11:47.766Z,100608.34
2023-04-13T19:14:14.966Z,100612.47
2023-04-13T19:16:42.176Z,100614.91
2023-04-13T19:19:10.102Z,100620.06
2023-04-13T19:21:37.234Z,100607.78
2023-04-13T19:24:04.454Z,100618.94
2023-04-13T19:26:31.578Z,100624.06
2023-04-13T19:29:00.349Z,100634.41
2023-04-13T19:31:27.500Z,100640.41
2023-04-13T19:33:54.765Z,100633.41
2023-04-13T19:36:23.136Z,100637.59
2023-04-13T19:38:52.024Z,100644.41
2023-04-13T19:41:19.318Z,100646.81
2023-04-13T19:43:47.440Z,100650.19
2023-04-13T19:46:14.570Z,100663.06
2023-04-13T19:48:42.304Z,100670.59
2023-04-13T19:51:09.432Z,100678.28
2023-04-13T19:53:38.197Z,100680.88
2023-04-13T19:56:05.584Z,100680.97
2023-04-13T19:58:32.900Z,100680.97
2023-04-13T20:01:00.420Z,100682.78
2023-04-13T20:03:28.757Z,100683.66
2023-04-13T20:05:58.275Z,100688.03
2023-04-13T20:08:25.764Z,100691.63
2023-04-13T20:10:53.112Z,100692.56
2023-04-13T20:13:21.265Z,100699.41
2023-04-13T20:15:48.364Z,100691.72
2023-04-13T20:18:17.275Z,100696.88
2023-04-13T20:20:44.676Z,100701.09
2023-04-13T20:23:11.767Z,100698.34
2023-04-13T20:25:38.921Z,100706.16
2023-04-13T20:28:06.070Z,100700.88
2023-04-13T20:30:33.155Z,100705.91
2023-04-13T20:33:00.343Z,100709.13
2023-04-13T20:35:28.192Z,100711.59
2023-04-13T20:37:59.924Z,100715.81
2023-04-13T20:40:28.200Z,100712.16
2023-04-13T20:42:58.490Z,100724.16
2023-04-13T20:45:25.842Z,100724.09
2023-04-13T20:47:56.065Z,100727.38
2023-04-13T20:50:25.703Z,100721.38
2023-04-13T20:52:56.591Z,100721.19
2023-04-13T20:55:24.541Z,100726.25
2023-04-13T20:57:52.411Z,100720.97
2023-04-13T21:00:23.369Z,100724.31
2023-04-13T21:02:52.878Z,100719.22
2023-04-13T21:05:22.135Z,100730.22
2023-04-13T21:07:50.536Z,100736.31
2023-04-13T21:10:17.917Z,100738.81
2023-04-13T21:12:44.956Z,100750.88
2023-04-13T21:15:12.409Z,100740.28
2023-04-13T21:17:39.516Z,100749.78
2023-04-13T21:20:08.968Z,100754.03
2023-04-13T21:22:36.891Z,100758.28
2023-04-13T21:25:05.271Z,100759.94
2023-04-13T21:27:32.536Z,100752.84
2023-04-13T21:30:00.116Z,100756.97
2023-04-13T21:32:27.333Z,100745.72
2023-04-13T21:34:55.092Z,100758.59
2023-04-13T21:37:22.271Z,100749.88
2023-04-13T21:39:50.034Z,100747.16
2023-04-13T21:42:17.262Z,100750.53
2023-04-13T21:44:44.296Z,100747.75
2023-04-13T21:47:11.392Z,100751.13
2023-04-13T21:49:38.518Z,100748.28
2023-04-13T21:52:05.575Z,100749.94
2023-04-13T21:54:32.752Z,100746.59
2023-04-13T21:56:59.896Z,100751.75
2023-04-13T21:59:28.115Z,100755.19
2023-04-13T22:01:55.459Z,100754.22
2023-04-13T22:04:22.965Z,100753.22
2023-04-13T22:06:51.475Z,100752.13
2023-04-13T22:09:18.680Z,100750.09
2023-04-13T22:11:46.404Z,100749.06
2023-04-13T22:14:13.546Z,100748.94
2023-04-13T22:16:40.992Z,100753.19
2023-04-13T22:19:08.428Z,100756.66
2023-04-13T22:21:36.781Z,100753.25
2023-04-13T22:24:04.173Z,100759.94
2023-04-13T22:26:31.334Z,100755.53
2023-04-13T22:28:58.976Z,100761.50
2023-04-13T22:31:26.432Z,100757.09
2023-04-13T22:33:53.482Z,100762.97
2023-04-13T22:36:21.761Z,100748.97
2023-04-13T22:38:50.332Z,100758.34
2023-04-13T22:41:17.492Z,100760.84
2023-04-13T22:43:44.755Z,100761.56
2023-04-13T22:46:12.121Z,100765.81
2023-04-13T22:48:39.414Z,100753.56
2023-04-13T22:51:06.528Z,100763.09
2023-04-13T22:53:33.661Z,100760.44
2023-04-13T22:56:01.068Z,100762.00
2023-04-13T22:58:28.774Z,100751.31
2023-04-13T23:00:56.003Z,100756.41
2023-04-13T23:03:23.410Z,100760.72
2023-04-13T23:05:51.655Z,100752.81
2023-04-13T23:08:18.812Z,100749.25
2023-04-13T23:10:46.345Z,100762.13
2023-04-13T23:13:13.550Z,100755.06
2023-04-13T23:15:40.763Z,100763.59
2023-04-13T23:18:07.919Z,100753.94
2023-04-13T23:20:35.045Z,100765.06
2023-04-13T23:23:02.480Z,100756.31
2023-04-13T23:25:29.602Z,100753.69
2023-04-13T23:27:56.653Z,100757.88
2023-04-13T23:30:23.770Z,100748.91
2023-04-13T23:32:51.981Z,100760.06
2023-04-13T23:35:19.225Z,100758.31
2023-04-13T23:37:46.655Z,100756.34
2023-04-13T23:40:13.830Z,100760.56
2023-04-13T23:42:41.111Z,100760.56
2023-04-13T23:45:08.831Z,100759.69
2023-04-13T23:47:36.037Z,100763.94
2023-04-13T23:50:03.432Z,100770.84
2023-04-13T23:52:30.820Z,100764.56
2023-04-13T23:54:57.873Z,100765.28
2023-04-13T23:57:24.985Z,100761.81
2023-04-13T23:59:56.980Z,100766.97
